createdAt,value
2023-02-09T00:00:14.381Z,98492.53
2023-02-09T00:02:44.524Z,98492.59
2023-02-09T00:05:13.571Z,98494.34
2023-02-09T00:07:42.866Z,98488.31
2023-02-09T00:10:12.089Z,98476.25
2023-02-09T00:12:59.873Z,98473.81
2023-02-09T00:15:29.128Z,98482.50
2023-02-09T00:17:58.147Z,98495.31
2023-02-09T00:20:27.449Z,98484.22
2023-02-09T00:22:56.503Z,98480.75
2023-02-09T00:25:25.741Z,98486.78
2023-02-09T00:27:55.115Z,98474.72
2023-02-09T00:30:24.580Z,98472.97
2023-02-09T00:32:53.624Z,98465.31
2023-02-09T00:35:23.018Z,98472.31
2023-02-09T00:37:52.060Z,98468.94
2023-02-09T00:40:21.440Z,98467.22
2023-02-09T00:42:50.439Z,98468.13
2023-02-09T00:45:19.918Z,98468.16
2023-02-09T00:47:48.964Z,98475.84
2023-02-09T00:50:18.480Z,98475.84
2023-02-09T00:52:47.594Z,98470.66
2023-02-09T00:55:18.223Z,98475.81
2023-02-09T00:57:47.457Z,98474.91
2023-02-09T01:00:19.551Z,98481.72
2023-02-09T01:02:50.797Z,98483.53
2023-02-09T01:05:23.709Z,98476.69
2023-02-09T01:07:57.891Z,98477.53
2023-02-09T01:10:29.498Z,98470.69
2023-02-09T01:13:01.678Z,98465.66
2023-02-09T01:15:32.984Z,98469.13
2023-02-09T01:18:04.030Z,98474.19
2023-02-09T01:20:34.370Z,98460.44
2023-02-09T01:23:04.900Z,98460.44
2023-02-09T01:25:34.917Z,98450.09
2023-02-09T01:28:04.948Z,98444.94
2023-02-09T01:30:36.257Z,98440.63
2023-02-09T01:33:06.324Z,98441.53
2023-02-09T01:35:36.215Z,98444.00
2023-02-09T01:38:06.322Z,98445.78
2023-02-09T01:40:37.760Z,98439.69
2023-02-09T01:43:09.029Z,98441.50
2023-02-09T01:45:56.186Z,98437.03
2023-02-09T01:48:30.436Z,98448.22
2023-02-09T01:51:03.079Z,98441.44
2023-02-09T01:53:32.239Z,98439.47
2023-02-09T01:56:26.006Z,98447.28
2023-02-09T01:58:57.371Z,98444.00
2023-02-09T02:01:28.580Z,98456.03
2023-02-09T02:03:58.781Z,98455.22
2023-02-09T02:06:28.685Z,98467.16
2023-02-09T02:09:04.569Z,98468.00
2023-02-09T02:11:34.521Z,98482.72
2023-02-09T02:14:04.160Z,98494.78
2023-02-09T02:16:50.689Z,98511.09
2023-02-09T02:20:01.259Z,98511.94
2023-02-09T02:23:19.747Z,98511.91
2023-02-09T02:26:21.448Z,98508.56
2023-02-09T02:29:08.106Z,98487.94
2023-02-09T02:32:03.937Z,98472.34
2023-02-09T02:35:09.569Z,98472.28
2023-02-09T02:38:03.792Z,98473.97
2023-02-09T02:40:54.138Z,98481.81
2023-02-09T02:43:54.729Z,98492.78
2023-02-09T02:46:50.365Z,98504.72
2023-02-09T02:49:44.136Z,98517.38
2023-02-09T02:52:14.008Z,98528.56
2023-02-09T02:54:51.386Z,98525.84
2023-02-09T02:57:25.088Z,98528.31
2023-02-09T03:00:08.457Z,98527.25
2023-02-09T03:02:46.205Z,98542.59
2023-02-09T03:05:18.155Z,98545.28
2023-02-09T03:07:48.282Z,98541.78
2023-02-09T03:10:36.252Z,98539.72
2023-02-09T03:13:14.076Z,98539.84
2023-02-09T03:16:20.535Z,98538.72
2023-02-09T03:19:03.148Z,98540.44
2023-02-09T03:21:38.873Z,98537.72
2023-02-09T03:24:31.233Z,98548.75
2023-02-09T03:27:11.748Z,98544.41
2023-02-09T03:29:45.599Z,98558.22
2023-02-09T03:32:17.349Z,98563.44
2023-02-09T03:34:47.952Z,98570.09
2023-02-09T03:37:19.341Z,98576.25
2023-02-09T03:39:51.053Z,98567.44
2023-02-09T03:42:21.977Z,98570.06
2023-02-09T03:44:51.885Z,98567.44
2023-02-09T03:47:21.540Z,98574.41
2023-02-09T03:49:51.678Z,98581.19
2023-02-09T03:52:21.762Z,98587.94
2023-02-09T03:54:51.850Z,98576.91
2023-02-09T03:57:21.881Z,98572.50
2023-02-09T03:59:51.718Z,98572.56
2023-02-09T04:02:21.724Z,98589.41
2023-02-09T04:04:52.073Z,98598.78
2023-02-09T04:07:28.002Z,98600.16
2023-02-09T04:09:58.013Z,98595.03
2023-02-09T04:12:27.867Z,98596.44
2023-02-09T04:14:57.856Z,98598.75
2023-02-09T04:17:27.813Z,98603.69
2023-02-09T04:19:57.848Z,98603.63
2023-02-09T04:22:28.408Z,98605.28
2023-02-09T04:24:58.458Z,98596.69
2023-02-09T04:27:29.685Z,98585.28
2023-02-09T04:29:59.913Z,98584.03
2023-02-09T04:32:30.032Z,98580.19
2023-02-09T04:34:59.967Z,98594.03
2023-02-09T04:37:29.947Z,98596.38
2023-02-09T04:39:59.525Z,98603.22
2023-02-09T04:42:30.066Z,98615.88
2023-02-09T04:45:00.669Z,98618.53
2023-02-09T04:47:30.878Z,98601.44
2023-02-09T04:50:00.968Z,98590.41
2023-02-09T04:52:31.069Z,98599.53
2023-02-09T04:55:01.289Z,98601.81
2023-02-09T04:57:50.122Z,98605.16
2023-02-09T05:00:21.587Z,98618.59
2023-02-09T05:02:51.558Z,98613.16
2023-02-09T05:05:22.340Z,98602.31
2023-02-09T05:07:52.526Z,98603.91
2023-02-09T05:10:22.703Z,98614.75
2023-02-09T05:12:53.881Z,98602.44
2023-02-09T05:15:23.942Z,98603.22
2023-02-09T05:17:53.950Z,98596.72
2023-02-09T05:20:23.639Z,98595.53
2023-02-09T05:22:53.770Z,98592.16
2023-02-09T05:25:23.883Z,98591.09
2023-02-09T05:27:53.974Z,98587.53
2023-02-09T05:30:24.120Z,98579.59
2023-02-09T05:32:54.284Z,98579.44
2023-02-09T05:35:24.208Z,98580.03
2023-02-09T05:37:54.347Z,98578.63
2023-02-09T05:40:24.544Z,98579.03
2023-02-09T05:42:54.682Z,98573.94
2023-02-09T05:45:24.927Z,98567.50
2023-02-09T05:47:54.670Z,98569.34
2023-02-09T05:50:24.988Z,98581.44
2023-02-09T05:53:00.237Z,98597.63
2023-02-09T05:55:30.403Z,98610.56
2023-02-09T05:58:00.523Z,98622.47
2023-02-09T06:00:30.968Z,98614.69
2023-02-09T06:03:01.253Z,98600.41
2023-02-09T06:05:31.230Z,98574.81
2023-02-09T06:08:01.281Z,98587.44
2023-02-09T06:10:31.012Z,98569.16
2023-02-09T06:13:01.116Z,98562.63
2023-02-09T06:15:31.263Z,98572.00
2023-02-09T06:18:02.623Z,98572.50
2023-02-09T06:20:32.745Z,98566.50
2023-02-09T06:23:02.872Z,98559.44
2023-02-09T06:25:32.767Z,98548.16
2023-02-09T06:28:03.550Z,98533.31
2023-02-09T06:30:33.434Z,98539.38
2023-02-09T06:33:02.914Z,98557.16
2023-02-09T06:35:33.132Z,98562.84
2023-02-09T06:38:03.259Z,98554.81
2023-02-09T06:40:33.352Z,98524.31
2023-02-09T06:43:03.964Z,98519.25
2023-02-09T06:45:34.145Z,98508.88
2023-02-09T09:42:03.216Z,98289.09
2023-02-09T09:44:38.751Z,98277.91
2023-02-09T09:47:13.592Z,98268.69
2023-02-09T09:49:42.970Z,98274.19
2023-02-09T09:52:40.328Z,98278.47
2023-02-09T09:55:16.152Z,98263.00
2023-02-09T09:58:40.530Z,98274.19
2023-02-09T10:01:18.853Z,98276.06
2023-02-09T10:03:48.330Z,98255.50
2023-02-09T10:06:23.030Z,98259.50
2023-02-09T10:09:35.982Z,98257.84
2023-02-09T10:12:26.615Z,98268.59
2023-02-09T10:14:56.017Z,98267.34
2023-02-09T10:17:24.872Z,98276.72
2023-02-09T10:20:08.490Z,98266.88
2023-02-09T10:22:37.754Z,98270.53
2023-02-09T10:25:49.879Z,98267.72
2023-02-09T10:28:27.764Z,98261.44
2023-02-09T10:31:00.051Z,98267.56
2023-02-09T10:33:39.279Z,98259.66
2023-02-09T10:36:22.829Z,98258.06
2023-02-09T10:38:52.617Z,98271.16
2023-02-09T10:41:23.896Z,98263.84
2023-02-09T10:43:54.036Z,98265.59
2023-02-09T10:46:23.759Z,98257.59
2023-02-09T10:48:52.572Z,98252.31
2023-02-09T10:51:34.791Z,98242.72
2023-02-09T10:54:08.282Z,98242.00
2023-02-09T10:56:43.961Z,98241.66
2023-02-09T10:59:25.847Z,98246.94
2023-02-09T11:02:03.510Z,98227.53
2023-02-09T11:04:40.045Z,98220.09
2023-02-09T11:07:16.257Z,98225.31
2023-02-09T11:09:50.130Z,98230.28
2023-02-09T11:12:21.444Z,98228.38
2023-02-09T11:14:50.746Z,98215.28
2023-02-09T11:17:37.565Z,98220.66
2023-02-09T11:20:19.223Z,98218.16
2023-02-09T11:22:48.507Z,98211.94
2023-02-09T11:25:26.717Z,98207.41
2023-02-09T11:28:25.029Z,98178.94
2023-02-09T11:31:18.128Z,98188.03
2023-02-09T11:34:08.947Z,98180.19
2023-02-09T11:36:57.913Z,98200.94
2023-02-09T11:39:40.704Z,98197.56
2023-02-09T11:42:33.838Z,98188.44
2023-02-09T11:45:32.007Z,98157.94
2023-02-09T11:48:12.416Z,98165.47
2023-02-09T11:51:08.744Z,98179.22
2023-02-09T11:53:44.244Z,98167.53
2023-02-09T11:56:19.327Z,98169.00
2023-02-09T11:59:15.806Z,98154.69
2023-02-09T12:01:51.250Z,98163.25
2023-02-09T12:04:38.904Z,98152.00
2023-02-09T12:07:32.808Z,98175.34
2023-02-09T12:10:04.983Z,98167.53
2023-02-09T12:13:00.134Z,98171.47
2023-02-09T12:15:50.983Z,98177.22
2023-02-09T12:18:27.259Z,98206.78
2023-02-09T12:21:02.664Z,98200.59
2023-02-09T12:23:39.051Z,98185.63
2023-02-09T12:26:17.728Z,98217.03
2023-02-09T12:29:04.556Z,98213.13
2023-02-09T12:32:08.895Z,98222.44
2023-02-09T12:34:47.631Z,98239.53
2023-02-09T12:37:27.455Z,98250.75
2023-02-09T12:40:19.376Z,98212.75
2023-02-09T12:43:11.690Z,98208.97
2023-02-09T12:45:44.017Z,98215.53
2023-02-09T12:48:16.350Z,98216.41
2023-02-09T12:50:47.468Z,98228.00
2023-02-09T12:53:25.802Z,98230.34
2023-02-09T12:56:10.352Z,98248.53
2023-02-09T12:58:44.981Z,98235.00
2023-02-09T13:01:16.587Z,98234.72
2023-02-09T13:04:04.642Z,98218.59
2023-02-09T13:06:52.667Z,98201.41
2023-02-09T13:09:30.408Z,98212.94
2023-02-09T13:12:05.994Z,98206.94
2023-02-09T13:14:35.314Z,98204.00
2023-02-09T13:17:10.128Z,98203.66
2023-02-09T13:20:12.478Z,98194.81
2023-02-09T13:23:07.675Z,98194.91
2023-02-09T13:25:40.124Z,98199.13
2023-02-09T13:28:19.591Z,98197.81
2023-02-09T13:30:49.078Z,98214.00
2023-02-09T13:33:49.646Z,98208.22
2023-02-09T13:37:00.938Z,98216.78
2023-02-09T13:39:40.675Z,98218.91
2023-02-09T13:42:27.085Z,98230.66
2023-02-09T13:45:00.810Z,98242.25
2023-02-09T13:47:30.432Z,98234.44
2023-02-09T13:50:24.695Z,98226.16
2023-02-09T13:52:54.103Z,98225.19
2023-02-09T13:55:24.428Z,98216.53
2023-02-09T13:58:01.905Z,98203.22
2023-02-09T14:00:51.063Z,98202.28
2023-02-09T14:03:27.698Z,98204.34
2023-02-09T14:06:16.160Z,98220.19
2023-02-09T14:08:48.770Z,98214.59
2023-02-09T14:11:42.656Z,98222.09
2023-02-09T14:14:16.686Z,98227.78
2023-02-09T14:16:53.504Z,98216.56
2023-02-09T14:19:33.719Z,98212.72
2023-02-09T14:22:03.024Z,98218.84
2023-02-09T14:24:52.514Z,98220.69
2023-02-09T14:27:27.590Z,98232.19
2023-02-09T14:29:57.820Z,98223.19
2023-02-09T14:32:37.321Z,98221.66
2023-02-09T14:35:40.395Z,98219.44
2023-02-09T14:38:48.777Z,98226.47
2023-02-09T14:41:34.099Z,98234.72
2023-02-09T14:44:09.299Z,98225.13
2023-02-09T14:46:59.367Z,98228.69
2023-02-09T14:49:30.304Z,98235.22
2023-02-09T14:52:14.781Z,98238.34
2023-02-09T14:54:49.636Z,98241.13
2023-02-09T14:57:19.186Z,98243.50
2023-02-09T14:59:48.038Z,98241.78
2023-02-09T15:02:21.251Z,98250.13
2023-02-09T15:04:50.536Z,98244.53
2023-02-09T15:07:36.543Z,98240.53
2023-02-09T15:10:09.173Z,98240.03
2023-02-09T15:12:38.299Z,98245.44
2023-02-09T15:15:07.296Z,98263.84
2023-02-09T15:17:36.652Z,98256.53
2023-02-09T15:20:05.797Z,98259.09
2023-02-09T15:22:34.694Z,98252.16
2023-02-09T15:25:03.663Z,98242.75
2023-02-09T15:28:03.991Z,98251.66
2023-02-09T15:30:35.905Z,98245.22
2023-02-09T15:33:07.436Z,98255.22
2023-02-09T15:35:36.644Z,98272.56
2023-02-09T15:38:05.528Z,98282.31
2023-02-09T15:41:04.020Z,98269.09
2023-02-09T15:43:51.501Z,98266.09
2023-02-09T15:46:39.441Z,98263.56
2023-02-09T15:49:08.686Z,98247.25
2023-02-09T15:51:40.403Z,98267.53
2023-02-09T15:54:24.041Z,98262.31
2023-02-09T15:56:53.659Z,98274.69
2023-02-09T15:59:24.927Z,98297.56
2023-02-09T16:01:54.437Z,98270.94
2023-02-09T16:04:23.378Z,98276.44
2023-02-09T16:06:54.762Z,98269.06
2023-02-09T16:09:28.557Z,98271.53
2023-02-09T16:11:58.233Z,98271.66
2023-02-09T16:14:28.470Z,98279.81
2023-02-09T16:16:57.456Z,98266.88
2023-02-09T16:19:26.293Z,98257.22
2023-02-09T16:21:58.908Z,98256.28
2023-02-09T16:24:43.031Z,98262.41
2023-02-09T16:27:28.960Z,98255.53
2023-02-09T16:29:59.127Z,98261.81
2023-02-09T16:32:29.522Z,98273.06
2023-02-09T16:35:11.120Z,98277.22
2023-02-09T16:37:48.095Z,98265.03
2023-02-09T16:40:26.022Z,98261.72
2023-02-09T16:42:56.383Z,98266.03
2023-02-09T16:45:26.977Z,98265.25
2023-02-09T16:47:59.355Z,98264.31
2023-02-09T16:50:53.948Z,98258.78
2023-02-09T16:53:34.196Z,98251.09
2023-02-09T16:56:11.066Z,98260.69
2023-02-09T16:58:40.987Z,98251.47
2023-02-09T17:01:18.409Z,98256.28
2023-02-09T17:03:58.036Z,98253.69
2023-02-09T17:06:31.305Z,98250.34
2023-02-09T17:09:00.955Z,98256.63
2023-02-09T17:11:30.331Z,98253.94
2023-02-09T17:13:59.742Z,98260.06
2023-02-09T17:16:34.202Z,98248.66
2023-02-09T17:19:04.906Z,98245.38
2023-02-09T17:21:40.482Z,98239.22
2023-02-09T17:24:27.738Z,98233.03
2023-02-09T17:26:57.332Z,98227.44
2023-02-09T17:29:26.756Z,98224.22
2023-02-09T17:31:55.900Z,98222.34
2023-02-09T17:34:28.088Z,98216.25
2023-02-09T17:36:58.225Z,98223.00
2023-02-09T17:39:28.151Z,98223.03
2023-02-09T17:41:59.739Z,98217.13
2023-02-09T17:44:45.123Z,98218.69
2023-02-09T17:47:21.044Z,98208.88
2023-02-09T17:49:50.530Z,98220.38
2023-02-09T17:52:21.125Z,98202.25
2023-02-09T17:54:52.015Z,98204.88
2023-02-09T17:57:22.052Z,98198.00
2023-02-09T17:59:51.332Z,98197.97
2023-02-09T18:02:21.512Z,98199.88
2023-02-09T18:04:50.816Z,98194.66
2023-02-09T18:07:21.634Z,98198.94
2023-02-09T18:09:51.317Z,98184.28
2023-02-09T18:12:23.710Z,98197.06
2023-02-09T18:14:53.020Z,98198.00
2023-02-09T18:17:22.151Z,98195.41
2023-02-09T18:19:51.611Z,98199.72
2023-02-09T18:22:21.053Z,98205.19
2023-02-09T18:24:51.563Z,98210.06
2023-02-09T18:27:22.023Z,98211.75
2023-02-09T18:29:51.363Z,98205.97
2023-02-09T18:32:21.966Z,98202.59
2023-02-09T18:34:51.899Z,98200.81
2023-02-09T18:37:20.852Z,98200.09
2023-02-09T18:39:50.269Z,98204.34
2023-02-09T18:42:19.322Z,98198.44
2023-02-09T18:44:48.625Z,98198.44
2023-02-09T18:47:17.598Z,98190.81
2023-02-09T18:49:46.852Z,98203.75
2023-02-09T18:52:18.129Z,98196.91
2023-02-09T18:54:47.782Z,98196.13
2023-02-09T18:57:16.603Z,98195.25
2023-02-09T18:59:47.856Z,98200.56
2023-02-09T19:02:17.377Z,98197.09
2023-02-09T19:04:46.415Z,98195.31
2023-02-09T19:07:17.134Z,98204.84
2023-02-09T19:09:46.910Z,98197.91
2023-02-09T19:12:15.800Z,98197.19
2023-02-09T19:14:47.542Z,98186.88
2023-02-09T19:17:19.433Z,98192.81
2023-02-09T19:19:49.909Z,98205.72
2023-02-09T19:22:21.930Z,98207.50
2023-02-09T19:24:53.277Z,98210.19
2023-02-09T19:27:22.641Z,98204.22
2023-02-09T19:29:55.855Z,98196.47
2023-02-09T19:32:27.329Z,98208.75
2023-02-09T19:34:56.783Z,98215.03
2023-02-09T19:37:25.753Z,98216.75
2023-02-09T19:40:04.617Z,98210.75
2023-02-09T19:42:34.966Z,98215.03
2023-02-09T19:45:04.441Z,98211.59
2023-02-09T19:47:33.477Z,98219.50
2023-02-09T19:50:02.910Z,98217.81
2023-02-09T19:52:32.030Z,98215.97
2023-02-09T19:55:01.365Z,98201.41
2023-02-09T19:57:30.492Z,98211.72
2023-02-09T19:59:59.560Z,98208.34
2023-02-09T20:02:28.629Z,98211.75
2023-02-09T20:04:57.750Z,98208.28
2023-02-09T20:07:27.077Z,98214.25
2023-02-09T20:09:58.072Z,98198.91
2023-02-09T20:12:27.456Z,98197.31
2023-02-09T20:14:56.578Z,98201.69
2023-02-09T20:17:26.105Z,98211.88
2023-02-09T20:19:55.797Z,98207.72
2023-02-09T20:22:24.940Z,98200.06
2023-02-09T20:24:54.450Z,98204.19
2023-02-09T20:27:24.824Z,98198.13
2023-02-09T20:29:58.159Z,98208.59
2023-02-09T20:32:27.369Z,98204.97
2023-02-09T20:34:56.636Z,98214.50
2023-02-09T20:37:26.001Z,98199.25
2023-02-09T20:39:55.384Z,98201.63
2023-02-09T20:42:42.498Z,98206.84
2023-02-09T20:45:42.782Z,98207.31
2023-02-09T20:48:12.271Z,98199.00
2023-02-09T20:50:41.225Z,98182.72
2023-02-09T20:53:10.669Z,98188.00
2023-02-09T20:55:39.452Z,98188.81
2023-02-09T20:58:09.489Z,98196.47
2023-02-09T21:00:39.000Z,98195.75
2023-02-09T21:03:08.541Z,98177.63
2023-02-09T21:05:37.429Z,98178.41
2023-02-09T21:08:08.730Z,98179.25
2023-02-09T21:10:39.283Z,98171.50
2023-02-09T21:13:09.766Z,98175.88
2023-02-09T21:15:43.389Z,98165.16
2023-02-09T21:18:12.975Z,98173.91
2023-02-09T21:20:41.815Z,98181.63
2023-02-09T21:23:11.304Z,98190.25
2023-02-09T21:25:40.202Z,98180.91
2023-02-09T21:28:09.619Z,98175.88
2023-02-09T21:30:43.519Z,98173.75
2023-02-09T21:33:12.639Z,98180.84
2023-02-09T21:35:42.314Z,98186.78
2023-02-09T21:38:11.467Z,98178.28
2023-02-09T21:40:40.506Z,98176.53
2023-02-09T21:43:09.720Z,98181.66
2023-02-09T21:45:41.626Z,98179.06
2023-02-09T21:48:11.036Z,98188.59
2023-02-09T21:50:40.562Z,98184.34
2023-02-09T21:53:09.960Z,98171.47
2023-02-09T21:55:38.923Z,98179.53
2023-02-09T21:58:08.004Z,98170.78
2023-02-09T22:00:37.046Z,98164.97
2023-02-09T22:03:06.284Z,98164.97
2023-02-09T22:05:35.181Z,98167.66
2023-02-09T22:08:04.576Z,98182.72
2023-02-09T22:10:33.452Z,98192.16
2023-02-09T22:13:09.341Z,98189.66
2023-02-09T22:15:42.210Z,98190.09
2023-02-09T22:18:11.881Z,98193.94
2023-02-09T22:20:45.674Z,98178.19
2023-02-09T22:23:15.620Z,98181.78
2023-02-09T22:25:44.778Z,98181.78
2023-02-09T22:28:14.890Z,98180.94
2023-02-09T22:30:44.423Z,98191.53
2023-02-09T22:33:13.675Z,98196.69
2023-02-09T22:35:44.017Z,98211.22
2023-02-09T22:38:13.561Z,98204.56
2023-02-09T22:40:42.605Z,98207.09
2023-02-09T22:43:11.823Z,98207.06
2023-02-09T22:45:41.324Z,98201.50
2023-02-09T22:48:12.223Z,98192.84
2023-02-09T22:50:41.869Z,98191.16
2023-02-09T22:53:10.999Z,98196.16
2023-02-09T22:55:40.390Z,98221.50
2023-02-09T22:58:09.738Z,98232.63
2023-02-09T23:00:39.088Z,98224.03
2023-02-09T23:03:08.261Z,98222.22
2023-02-09T23:05:37.613Z,98223.13
2023-02-09T23:08:06.922Z,98223.00
2023-02-09T23:10:36.038Z,98234.97
2023-02-09T23:13:04.822Z,98236.81
2023-02-09T23:15:34.290Z,98222.94
2023-02-09T23:18:03.256Z,98224.59
2023-02-09T23:20:32.292Z,98203.81
2023-02-09T23:23:07.366Z,98196.91
2023-02-09T23:25:36.919Z,98217.59
2023-02-09T23:28:05.972Z,98221.16
2023-02-09T23:30:35.622Z,98216.59
2023-02-09T23:33:04.735Z,98215.72
2023-02-09T23:35:33.770Z,98205.50
2023-02-09T23:38:02.723Z,98203.81
2023-02-09T23:40:32.597Z,98202.94
2023-02-09T23:43:01.717Z,98206.34
2023-02-09T23:45:31.060Z,98196.09
2023-02-09T23:48:00.272Z,98203.91
2023-02-09T23:50:29.924Z,98216.66
2023-02-09T23:52:58.999Z,98216.59
2023-02-09T23:55:28.393Z,98211.50
2023-02-09T23:57:57.357Z,98208.94
